RJFE(METAR)
10/20 19:00
METAR RJFE 201000Z 03008KT CAVOK 19/11 Q1021 RMK A3017=
戻る
トップページへ戻る
IMOC Co,.Ltd.